Terminal Aerodrome Forecast
Issued by NWS

Home | Current Version | Previous Version | Text Only | Print | Product List | Glossary On
Versions: 1 2 3 4 5 6 7 8 9 10 11 12 13 14 15 16 17 18
000
FTUS43 KPAH 191734
TAFCGI
TAF
KCGI 191734Z 1918/2018 17004KT P6SM SCT030
     FM200000 VRB02KT P6SM FEW250
     FM200700 00000KT 4SM BR FEW250
     FM201000 VRB03KT 1SM BR FEW150
     FM201300 18004KT P6SM FEW025=

USA.gov is the U.S. government's official web portal to all federal, state and local government web resources and services.